This is the latest recevied weather packets stored in our database for station/object K5SVV. If no packets are shown the sender has not sent any weather packets the latest 10 day(s).
| Time | Temp. | Humidity | Pressure | Rain* | Wind** | Luminosity | Snow |
|---|---|---|---|---|---|---|---|
| 1778170053 | 17.78° C | 70% | 1018.4 hPa | 0 mm | - | 588 W/m² | - |
| 1778169750 | 17.78° C | 73% | 1018.3 hPa | 0 mm | - | 282 W/m² | - |
| 1778169446 | 17.78° C | 71% | 1018.2 hPa | 0 mm | - | 670 W/m² | - |
| 1778169142 | 17.78° C | 71% | 1018.3 hPa | 0 mm | - | 868 W/m² | - |
| 1778168839 | 17.22° C | 72% | 1018.3 hPa | 0 mm | - | 730 W/m² | - |
| 1778168536 | 17.22° C | 73% | 1018 hPa | 0 mm | - | 488 W/m² | - |
| 1778168233 | 17.22° C | 74% | 1018.3 hPa | 0 mm | - | 229 W/m² | - |
| 1778167929 | 16.67° C | 74% | 1018.5 hPa | 0 mm | - | 673 W/m² | - |
| 1778167626 | 16.67° C | 76% | 1018.4 hPa | 0 mm | - | 513 W/m² | - |
| 1778167322 | 16.67° C | 75% | 1018.3 hPa | 0 mm | - | 652 W/m² | - |
| 1778167018 | 16.67° C | 76% | 1018.3 hPa | 0 mm | - | 681 W/m² | - |
| 1778166715 | 16.11° C | 76% | 1018.6 hPa | 0 mm | - | 754 W/m² | - |
| 1778166412 | 16.11° C | 75% | 1018.9 hPa | 0 mm | - | 724 W/m² | - |
| 1778166109 | 16.11° C | 76% | 1018.8 hPa | 0 mm | - | 701 W/m² | - |
| 1778165803 | 15.56° C | 77% | 1018.5 hPa | 0 mm | - | 698 W/m² | - |
| 1778165496 | 15.56° C | 79% | 1019.1 hPa | 0 mm | - | 589 W/m² | - |
| 1778165192 | 15° C | 79% | 1018.9 hPa | 0 mm | - | 461 W/m² | - |
| 1778164891 | 15° C | 80% | 1019 hPa | 0 mm | - | 257 W/m² | - |
| 1778164587 | 15° C | 80% | 1019.1 hPa | 0 mm | - | 272 W/m² | - |
| 1778164284 | 15° C | 80% | 1018.9 hPa | 0 mm | - | 357 W/m² | - |
| 1778163979 | 14.44° C | 81% | 1019.2 hPa | 0 mm | - | 476 W/m² | - |
| 1778163677 | 14.44° C | 82% | 1019.2 hPa | 0 mm | - | 232 W/m² | - |
| 1778163373 | 13.89° C | 83% | 1019 hPa | 0 mm | - | 271 W/m² | - |
| 1778163070 | 13.89° C | 83% | 1019 hPa | 0 mm | - | 148 W/m² | - |
| 1778162766 | 14.44° C | 83% | 1018.8 hPa | 0 mm | - | 241 W/m² | - |
* Rain latest hour (hover to see other rain measurements)
** Current wind speed in m/s (hover to see current wind gust speed)